San Antonio, TX

3:26 AM CDT on June 27, 2017 (GMT -0500)
| | Change Station

Elev -9999 ft 0.00 °N, 0.00 °E | Updated 0 second ago

Rain
Rain
°F
Feels Like °F
N
Wind Variable Wind from North
Gusts mph

Today
High -- | Low -- °F
--% Chance of Precip.
Yesterday
High -- | Low -- °F
Precip. -- in
Pressure 29.99 in
Visibility 10.0 miles
Clouds Few 2900 ft
Scattered Clouds 7000 ft
Dew Point Not available.
Humidity Not available.
Rainfall --
Snow Depth Not available.
6:35 AM 8:37 PM
Waxing Crescent, 14% visible
METAR KRND 270758Z AUTO 00000KT 10SM -RA FEW029 SCT070 23/23 A3001 RMK AO2 RAE04DZB04E12RAB12 SLP154 P0003 T02320232
Pressure 29.99 in
Visibility 10.0 miles
Clouds Few 2900 ft
Scattered Clouds 7000 ft
Dew Point Not available.
Humidity Not available.
Rainfall --
Snow Depth Not available.
6:35 AM 8:37 PM
Waxing Crescent, 14% visible
METAR KRND 270758Z AUTO 00000KT 10SM -RA FEW029 SCT070 23/23 A3001 RMK AO2 RAE04DZB04E12RAB12 SLP154 P0003 T02320232

Get Severe Weather Alerts

Thanks for signing up!

Be on the lookout for a verification email in your inbox.

You'll start receiving the daily forecast at 6 AM.

×

10-Day Weather Forecast

Almanac

Astronomy

Jun. 27, 2017 Rise Set
Actual Time
Civil Twilight
Nautical Twilight
Astronomical Twilight
Moon
Length of Visible Light
Length of Day
Tomorrow will be .
, % of the Moon is Illuminated

Today's Extremes

State Highs State Lows

Community

WunderPhotos

Category 6

Welcome to Category 6. This is the collective home for Weather Underground's featured writeups by Dr. Jeff Masters (right), Bob Henson (left), Chris Burt, and other regular contributors.

Nearby

Air Quality

  Air Quality AQ Index Pollutant
Not available.

Snow Depth

Station Depth Elevation

Earthquake Activity

City Distance Mag. Time & Date
Minimum magnitude displayed is 2.5.

Coastal Water Temperatures

Place Temperature

Stations

Nearby Weather Stations

Station Location Temp. Windchill Dew Point Humidity Wind Precip. Elev Updated Type
                   

Watches & Warnings

There are currently no watches in effect.